Wright, Mississippi
Current Conditions -  °F | °C
As of 2:35 PM on Friday 21 Nov 2014 (Local Time) from KRNV Reporting Station
Scattered Clouds Scattered Clouds  
Wind Chill: 68°   Ceiling: Unl
Heat Index: 68°   Visibility: 10mi
Dew Point: 53°   Wind: 6mph
Humidity: 57%   Direction: 190°S
Pressure: 30.23"   Gusts: NA
Location:  33.8277°N, 90.9559°W
Report Text: KRNV 212035Z AUTO 19005KT 10SM SCT110 20/12 A3023 RMK AO2 T02020115
Loading
Personal Weather Stations






























Interactive Weather Map New forecast layout! Learn more

10-Day Weather Forecast

Advertisements
Track Severe Weather on mobile